Time;durP1;ratioP1;P1;durP2;ratioP2;P2;SDS_P1;SDS_P2;PMS_P1;PMS_P2;Temp;Humidity;BMP_temperature;BMP_pressure;BME280_temperature;BME280_humidity;BME280_pressure;Samples;Min_cycle;Max_cycle;Signal;HPM_P1;HPM_P2
2023/08/31 00:00:12;;;;;;;3.28;1.45;;;16.80;60.70;;;;;;4960028;28;20506;-89
2023/08/31 00:02:41;;;;;;;5.68;1.50;;;16.80;60.60;;;;;;4958652;28;20058;-88
2023/08/31 00:05:10;;;;;;;5.03;1.50;;;16.80;60.70;;;;;;4954357;28;20047;-88
2023/08/31 00:07:37;;;;;;;3.88;1.60;;;16.80;60.80;;;;;;4959382;28;20055;-90
2023/08/31 00:10:09;;;;;;;4.20;1.52;;;16.80;60.90;;;;;;4961133;28;20065;-91
2023/08/31 00:12:37;;;;;;;4.95;1.38;;;16.80;61.00;;;;;;4958220;28;20065;-91
2023/08/31 00:15:05;;;;;;;7.88;1.85;;;16.80;61.10;;;;;;4960180;28;20499;-87
2023/08/31 00:17:33;;;;;;;4.65;1.70;;;16.80;61.10;;;;;;4958493;28;20073;-89
2023/08/31 00:20:00;;;;;;;5.85;2.08;;;16.80;61.10;;;;;;4951222;28;20066;-90
2023/08/31 00:22:29;;;;;;;5.15;2.00;;;16.80;61.10;;;;;;4957028;28;20058;-90
2023/08/31 00:24:57;;;;;;;7.78;1.80;;;16.80;61.10;;;;;;4959060;28;20047;-88
2023/08/31 00:27:24;;;;;;;4.18;1.77;;;16.80;61.20;;;;;;4957423;28;20055;-90
2023/08/31 00:29:51;;;;;;;10.25;1.88;;;16.80;61.20;;;;;;4961038;28;20089;-90
2023/08/31 00:32:22;;;;;;;3.45;1.88;;;16.80;61.30;;;;;;4957214;28;20058;-88
2023/08/31 00:34:49;;;;;;;5.68;2.03;;;16.80;61.40;;;;;;4948812;28;20066;-90
2023/08/31 00:37:16;;;;;;;3.53;1.70;;;16.80;61.40;;;;;;4959686;28;20058;-89
2023/08/31 00:39:45;;;;;;;7.55;1.90;;;16.80;61.40;;;;;;4959073;28;20058;-89
2023/08/31 00:42:14;;;;;;;4.13;1.80;;;16.80;61.40;;;;;;4958387;28;20063;-90
2023/08/31 00:44:41;;;;;;;4.22;1.83;;;16.80;61.40;;;;;;4957659;28;20065;-89
2023/08/31 00:47:08;;;;;;;5.95;2.00;;;16.80;61.40;;;;;;4963587;28;20051;-89
2023/08/31 00:49:36;;;;;;;6.28;1.85;;;16.70;61.50;;;;;;4959384;28;20054;-87
2023/08/31 00:52:04;;;;;;;4.45;2.05;;;16.80;61.60;;;;;;4957513;28;20065;-87
2023/08/31 00:54:32;;;;;;;4.40;2.00;;;16.70;61.60;;;;;;4957738;28;20062;-90
2023/08/31 00:57:00;;;;;;;4.57;1.67;;;16.80;61.60;;;;;;4964334;28;20062;-90
2023/08/31 00:59:28;;;;;;;6.82;2.20;;;16.80;61.50;;;;;;4959154;28;20070;-88
2023/08/31 01:02:04;;;;;;;5.30;1.95;;;16.80;61.50;;;;;;4959231;28;20494;-90
2023/08/31 01:04:39;;;;;;;3.35;1.92;;;16.70;61.40;;;;;;4998942;23;20478;-58
2023/08/31 01:07:46;;;;;;;4.80;1.83;;;16.70;61.50;;;;;;4960676;28;20399;-57
2023/08/31 01:10:22;;;;;;;2.78;1.98;;;16.70;61.70;;;;;;4961498;28;20502;-57
2023/08/31 01:12:56;;;;;;;5.45;1.90;;;16.80;61.80;;;;;;4958294;28;20797;-57
2023/08/31 01:15:25;;;;;;;2.97;1.70;;;16.80;62.00;;;;;;4958741;28;20051;-57
2023/08/31 01:17:56;;;;;;;3.17;1.90;;;16.80;62.00;;;;;;4959682;28;20065;-61
2023/08/31 01:20:30;;;;;;;2.42;1.60;;;16.80;62.10;;;;;;4958573;28;20058;-57
2023/08/31 01:23:01;;;;;;;2.40;1.58;;;16.80;62.20;;;;;;4960263;28;20422;-57
2023/08/31 01:25:30;;;;;;;3.38;1.90;;;16.80;62.20;;;;;;4958952;28;20825;-58
2023/08/31 01:27:59;;;;;;;4.65;1.92;;;16.80;62.20;;;;;;4957765;28;20069;-61
2023/08/31 01:30:30;;;;;;;8.95;2.10;;;16.80;62.30;;;;;;4958550;28;20051;-58
2023/08/31 01:32:57;;;;;;;3.45;1.70;;;16.80;62.40;;;;;;4955626;28;20061;-57
2023/08/31 01:35:26;;;;;;;5.18;2.05;;;16.80;62.10;;;;;;4955486;28;20487;-58
2023/08/31 01:37:57;;;;;;;4.25;2.00;;;16.90;62.10;;;;;;4958774;28;20507;-56
2023/08/31 01:40:32;;;;;;;3.45;1.90;;;16.90;62.00;;;;;;4960063;28;20047;-58
2023/08/31 01:43:03;;;;;;;2.78;1.98;;;16.90;62.00;;;;;;4957866;28;20362;-57
2023/08/31 01:45:33;;;;;;;5.45;2.10;;;16.90;62.00;;;;;;4959753;28;20046;-58
2023/08/31 01:48:00;;;;;;;4.03;2.28;;;16.90;62.00;;;;;;4961026;28;20053;-58
2023/08/31 01:50:28;;;;;;;3.00;1.77;;;16.90;62.00;;;;;;4957347;28;20054;-57
2023/08/31 01:52:55;;;;;;;3.42;2.00;;;16.90;62.10;;;;;;4957159;28;20051;-57
2023/08/31 01:55:23;;;;;;;3.75;1.95;;;16.90;62.10;;;;;;4958590;28;20066;-56
2023/08/31 01:57:50;;;;;;;2.80;1.88;;;16.90;62.20;;;;;;4958839;28;20059;-57
2023/08/31 02:00:19;;;;;;;3.92;2.00;;;16.90;62.30;;;;;;4960130;28;21746;-56
2023/08/31 02:02:46;;;;;;;3.65;2.03;;;16.90;62.30;;;;;;4959136;28;20057;-56
2023/08/31 02:05:14;;;;;;;6.38;2.50;;;16.90;62.30;;;;;;4957644;28;20059;-56
2023/08/31 02:07:41;;;;;;;4.13;1.80;;;16.90;62.30;;;;;;4959302;28;20054;-57
2023/08/31 02:10:09;;;;;;;3.38;1.77;;;16.90;62.30;;;;;;4956431;28;20410;-57
2023/08/31 02:12:36;;;;;;;3.17;1.90;;;16.90;62.30;;;;;;4957754;28;20491;-57
2023/08/31 02:15:05;;;;;;;6.30;2.30;;;16.90;62.20;;;;;;4956512;28;20071;-57
2023/08/31 02:17:35;;;;;;;6.00;2.13;;;16.90;62.10;;;;;;4955308;28;20058;-56
2023/08/31 02:23:24;;;;;;;4.00;1.98;;;16.90;61.90;;;;;;4959399;28;20307;-62
2023/08/31 02:25:51;;;;;;;4.72;2.22;;;16.90;61.80;;;;;;4957852;28;20065;-62
2023/08/31 02:28:19;;;;;;;5.10;1.90;;;16.90;61.70;;;;;;4960020;28;20747;-62
2023/08/31 02:30:47;;;;;;;7.47;2.00;;;16.80;61.60;;;;;;4954706;28;20058;-60
2023/08/31 02:33:15;;;;;;;6.25;2.35;;;16.80;61.50;;;;;;4961986;28;20514;-62
2023/08/31 02:35:43;;;;;;;4.97;1.80;;;16.80;61.30;;;;;;4957619;28;20402;-62
2023/08/31 02:38:10;;;;;;;3.97;1.98;;;16.80;61.00;;;;;;4963395;28;20070;-61
2023/08/31 02:40:37;;;;;;;4.60;1.70;;;16.70;60.80;;;;;;4965687;28;20409;-62
2023/08/31 02:43:05;;;;;;;3.95;1.90;;;16.70;60.90;;;;;;4964001;28;20065;-62
2023/08/31 02:45:32;;;;;;;4.03;1.90;;;16.70;60.80;;;;;;4965163;28;20497;-62
2023/08/31 02:48:43;;;;;;;3.80;1.90;;;16.70;60.70;;;;;;4964763;28;20059;-61
2023/08/31 02:51:11;;;;;;;7.05;3.72;;;16.70;60.70;;;;;;4963418;28;20062;-61
2023/08/31 02:53:38;;;;;;;30.92;15.27;;;16.70;60.70;;;;;;4961671;28;20063;-61
2023/08/31 02:56:05;;;;;;;20.52;11.88;;;16.70;60.70;;;;;;4962381;28;20509;-61
2023/08/31 02:58:33;;;;;;;6.55;3.53;;;16.60;60.70;;;;;;4962860;28;20063;-61
2023/08/31 03:01:08;;;;;;;4.55;2.47;;;16.60;60.60;;;;;;4962912;28;20058;-61
2023/08/31 03:03:36;;;;;;;6.63;1.73;;;16.60;60.30;;;;;;4960100;28;21379;-61
2023/08/31 03:06:03;;;;;;;3.78;1.80;;;16.60;60.30;;;;;;4959244;28;20059;-61
2023/08/31 03:08:31;;;;;;;3.40;2.15;;;16.50;60.20;;;;;;4962935;28;20062;-62
2023/08/31 03:10:59;;;;;;;3.22;2.03;;;16.50;60.30;;;;;;4963026;28;20525;-62
2023/08/31 03:13:26;;;;;;;4.15;1.90;;;16.50;60.50;;;;;;4962396;28;20051;-62
2023/08/31 03:15:53;;;;;;;4.28;2.33;;;16.50;60.60;;;;;;4963799;28;20498;-62
2023/08/31 03:18:20;;;;;;;3.65;1.88;;;16.50;60.70;;;;;;4963726;28;20426;-61
2023/08/31 03:20:47;;;;;;;4.13;2.25;;;16.50;60.80;;;;;;4959038;28;20058;-62
2023/08/31 03:23:15;;;;;;;3.67;1.95;;;16.40;60.70;;;;;;4960648;28;20070;-62
2023/08/31 03:25:43;;;;;;;5.13;2.33;;;16.40;60.70;;;;;;4960971;28;20054;-61
2023/08/31 03:28:11;;;;;;;4.75;2.30;;;16.40;60.70;;;;;;4961999;28;20065;-61
2023/08/31 03:30:39;;;;;;;4.47;2.35;;;16.40;60.50;;;;;;4960446;28;20057;-59
2023/08/31 03:33:06;;;;;;;6.80;2.60;;;16.40;60.30;;;;;;4962262;28;20051;-57
2023/08/31 03:35:34;;;;;;;5.72;2.45;;;16.30;60.10;;;;;;4959419;28;20055;-56
2023/08/31 03:38:01;;;;;;;4.93;2.67;;;16.30;59.90;;;;;;4961200;28;20058;-57
2023/08/31 03:40:29;;;;;;;4.80;2.45;;;16.30;59.90;;;;;;4955844;28;20055;-56
2023/08/31 03:42:57;;;;;;;3.67;2.67;;;16.20;59.80;;;;;;4958998;28;20051;-57
2023/08/31 03:45:25;;;;;;;4.47;2.83;;;16.20;59.90;;;;;;4962263;28;20402;-58
2023/08/31 03:47:52;;;;;;;4.50;2.45;;;16.10;59.80;;;;;;4959308;28;20059;-57
2023/08/31 03:50:19;;;;;;;3.75;2.22;;;16.10;59.90;;;;;;4977263;28;20057;-57
2023/08/31 03:52:47;;;;;;;4.22;2.33;;;16.10;60.10;;;;;;4983093;28;21588;-57
2023/08/31 03:55:14;;;;;;;3.47;2.60;;;16.00;60.30;;;;;;4979581;28;20063;-57
2023/08/31 03:57:41;;;;;;;3.95;2.40;;;16.00;60.60;;;;;;4982313;28;20054;-57
2023/08/31 04:00:12;;;;;;;4.03;2.40;;;16.00;60.80;;;;;;4981659;28;20061;-59
2023/08/31 04:02:40;;;;;;;3.97;2.38;;;16.00;61.10;;;;;;4981141;28;20062;-61
2023/08/31 04:05:08;;;;;;;3.65;2.50;;;16.00;61.20;;;;;;4978307;28;20054;-59
2023/08/31 04:07:36;;;;;;;4.72;1.90;;;16.00;61.30;;;;;;4980669;28;20046;-56
2023/08/31 04:10:04;;;;;;;3.60;2.17;;;16.10;61.50;;;;;;4981190;28;20058;-57
2023/08/31 04:12:31;;;;;;;3.05;2.03;;;16.10;61.60;;;;;;4981493;28;20486;-57
2023/08/31 04:14:58;;;;;;;4.50;2.28;;;16.10;61.70;;;;;;4979911;28;20089;-57
2023/08/31 04:17:27;;;;;;;3.25;2.38;;;16.10;61.80;;;;;;4976432;28;20061;-58
2023/08/31 04:19:55;;;;;;;2.65;2.00;;;16.10;62.00;;;;;;4978930;28;20494;-57
2023/08/31 04:22:22;;;;;;;3.30;1.80;;;16.10;62.00;;;;;;4976948;28;20065;-57
2023/08/31 04:24:49;;;;;;;2.70;1.92;;;16.10;62.10;;;;;;4976016;28;20089;-59
2023/08/31 04:27:16;;;;;;;4.97;2.45;;;16.20;62.20;;;;;;4979565;28;20049;-57
2023/08/31 04:29:43;;;;;;;3.25;2.20;;;16.20;62.30;;;;;;4976490;28;20062;-57
2023/08/31 04:32:11;;;;;;;5.70;2.88;;;16.20;62.30;;;;;;4979690;28;20069;-58
2023/08/31 04:34:39;;;;;;;4.68;2.50;;;16.20;62.20;;;;;;4977747;28;20054;-57
2023/08/31 04:37:06;;;;;;;3.15;2.00;;;16.30;62.20;;;;;;4975888;28;20410;-58
2023/08/31 04:39:34;;;;;;;5.18;2.50;;;16.20;62.10;;;;;;4977655;28;20506;-57
2023/08/31 04:42:01;;;;;;;5.80;2.55;;;16.30;62.10;;;;;;4978760;28;20498;-58
2023/08/31 04:44:28;;;;;;;3.05;2.10;;;16.30;62.10;;;;;;4978570;28;20061;-57
2023/08/31 04:46:55;;;;;;;7.47;4.25;;;16.30;62.10;;;;;;4977166;28;20050;-57
2023/08/31 04:49:23;;;;;;;16.60;9.18;;;16.30;62.10;;;;;;4977761;28;20054;-56
2023/08/31 04:51:51;;;;;;;7.43;3.85;;;16.30;62.20;;;;;;4981628;28;20062;-57
2023/08/31 04:54:18;;;;;;;5.43;2.58;;;16.30;62.20;;;;;;4979224;28;20061;-60
2023/08/31 04:56:46;;;;;;;3.97;2.90;;;16.30;62.20;;;;;;4978445;28;20046;-59
2023/08/31 04:59:13;;;;;;;4.18;2.40;;;16.30;62.20;;;;;;4978648;28;20054;-57
2023/08/31 05:01:40;;;;;;;5.28;2.60;;;16.40;62.30;;;;;;4976478;28;20054;-57
2023/08/31 05:04:07;;;;;;;4.32;2.10;;;16.40;62.20;;;;;;4979584;28;20528;-59
2023/08/31 05:06:35;;;;;;;6.43;2.35;;;16.40;62.20;;;;;;4978002;28;20426;-57
2023/08/31 05:09:05;;;;;;;3.53;2.00;;;16.40;62.10;;;;;;4979439;28;20564;-56
2023/08/31 05:11:32;;;;;;;6.78;2.53;;;16.40;62.10;;;;;;4978202;28;20073;-57
2023/08/31 05:14:00;;;;;;;6.57;2.03;;;16.40;62.00;;;;;;4980679;28;20065;-56
2023/08/31 05:16:27;;;;;;;3.42;2.00;;;16.40;62.10;;;;;;4976311;28;20038;-59
2023/08/31 05:18:54;;;;;;;3.78;2.10;;;16.40;62.10;;;;;;4977384;28;20053;-57
2023/08/31 05:21:21;;;;;;;3.45;1.95;;;16.40;62.20;;;;;;4976998;28;20425;-56
2023/08/31 05:23:48;;;;;;;3.88;2.00;;;16.40;62.10;;;;;;4977155;28;20410;-58
2023/08/31 05:26:17;;;;;;;2.88;1.95;;;16.40;62.20;;;;;;4977173;28;20051;-57
2023/08/31 05:28:44;;;;;;;4.70;2.00;;;16.40;62.30;;;;;;4976790;28;20050;-58
2023/08/31 05:31:11;;;;;;;3.70;1.67;;;16.50;62.40;;;;;;4974205;28;20517;-57
2023/08/31 05:33:38;;;;;;;2.85;1.73;;;16.50;62.50;;;;;;4976775;28;20054;-57
2023/08/31 05:36:06;;;;;;;4.57;2.20;;;16.50;62.60;;;;;;4977244;28;20122;-56
2023/08/31 05:38:33;;;;;;;4.55;2.50;;;16.50;62.60;;;;;;4977425;28;20046;-59
2023/08/31 05:41:07;;;;;;;4.40;2.10;;;16.50;62.50;;;;;;4974741;28;20057;-57
2023/08/31 05:43:39;;;;;;;3.05;2.13;;;16.50;62.40;;;;;;4976373;28;20054;-57
2023/08/31 05:46:07;;;;;;;6.05;2.17;;;16.50;62.40;;;;;;4971498;28;20126;-58
2023/08/31 05:48:34;;;;;;;3.40;1.80;;;16.50;62.20;;;;;;4977283;28;20629;-57
2023/08/31 05:51:01;;;;;;;2.20;1.85;;;16.50;62.00;;;;;;4977687;28;20054;-61
2023/08/31 05:53:29;;;;;;;3.65;1.95;;;16.60;62.00;;;;;;4978943;28;20393;-62
2023/08/31 05:56:03;;;;;;;3.30;2.10;;;16.50;61.80;;;;;;4976563;28;20528;-61
2023/08/31 05:58:32;;;;;;;6.03;2.40;;;16.60;61.80;;;;;;4979414;28;20550;-61
2023/08/31 06:01:01;;;;;;;4.65;1.90;;;16.50;61.60;;;;;;4980290;28;20058;-61
2023/08/31 06:03:29;;;;;;;3.60;2.00;;;16.50;61.40;;;;;;4975750;28;20257;-62
2023/08/31 06:05:56;;;;;;;4.45;1.90;;;16.60;61.50;;;;;;4970544;28;20050;-61
2023/08/31 06:08:24;;;;;;;4.55;2.08;;;16.50;61.40;;;;;;4979470;28;20054;-61
2023/08/31 06:10:52;;;;;;;6.43;1.80;;;16.50;61.50;;;;;;4976375;28;20077;-61
2023/08/31 06:13:19;;;;;;;2.67;1.55;;;16.50;61.70;;;;;;4978770;28;20399;-61
2023/08/31 06:15:46;;;;;;;5.20;1.70;;;16.60;62.00;;;;;;4977272;28;20054;-62
2023/08/31 06:18:15;;;;;;;3.60;1.67;;;16.60;62.10;;;;;;4977867;28;20066;-62
2023/08/31 06:20:42;;;;;;;4.32;1.77;;;16.60;62.20;;;;;;4977977;28;20061;-62
2023/08/31 06:23:11;;;;;;;2.33;1.50;;;16.60;62.20;;;;;;4975121;28;20376;-61
2023/08/31 06:25:38;;;;;;;3.08;1.90;;;16.60;62.30;;;;;;4972962;28;20062;-61
2023/08/31 06:28:08;;;;;;;2.55;1.70;;;16.70;62.20;;;;;;4976108;28;20053;-62
2023/08/31 06:30:35;;;;;;;5.25;1.88;;;16.70;62.10;;;;;;4975182;28;20410;-62
2023/08/31 06:33:02;;;;;;;2.95;1.73;;;16.70;62.10;;;;;;4977441;28;20091;-60
2023/08/31 06:35:31;;;;;;;4.72;1.67;;;16.80;62.10;;;;;;4975821;28;20441;-61
2023/08/31 06:37:59;;;;;;;4.45;1.90;;;16.80;62.10;;;;;;4978148;28;20053;-62
2023/08/31 06:40:26;;;;;;;4.22;1.50;;;16.70;62.00;;;;;;4972893;28;20413;-62
2023/08/31 06:42:53;;;;;;;5.55;1.70;;;16.80;62.10;;;;;;4978165;28;20065;-61
2023/08/31 06:45:20;;;;;;;5.40;1.85;;;16.80;62.10;;;;;;4980931;28;20065;-62
2023/08/31 06:47:47;;;;;;;2.67;1.45;;;16.80;62.10;;;;;;4977970;28;20158;-61
2023/08/31 06:50:16;;;;;;;4.15;1.80;;;16.80;62.10;;;;;;4979453;28;20062;-62
2023/08/31 06:52:46;;;;;;;3.15;1.85;;;16.80;62.10;;;;;;4981149;28;20058;-61
2023/08/31 06:55:13;;;;;;;5.88;2.08;;;16.80;62.10;;;;;;4982103;28;20061;-62
2023/08/31 06:57:41;;;;;;;2.35;1.73;;;16.80;62.10;;;;;;4978685;28;20502;-62
2023/08/31 07:00:11;;;;;;;4.40;1.60;;;16.90;62.20;;;;;;4979182;28;20065;-58
2023/08/31 07:02:41;;;;;;;6.78;1.50;;;16.90;62.20;;;;;;4974786;28;20061;-56
2023/08/31 07:05:08;;;;;;;5.18;1.88;;;16.90;62.10;;;;;;4978945;28;20054;-56
2023/08/31 07:07:36;;;;;;;3.65;1.50;;;16.90;62.10;;;;;;4981507;28;20053;-56
2023/08/31 07:10:06;;;;;;;2.78;1.38;;;16.90;62.10;;;;;;4982203;28;20061;-56
2023/08/31 07:12:34;;;;;;;3.05;1.40;;;17.00;62.10;;;;;;4977784;28;20054;-57
2023/08/31 07:15:01;;;;;;;3.60;1.75;;;17.00;62.10;;;;;;4981449;28;20058;-56
2023/08/31 07:17:28;;;;;;;7.47;1.80;;;17.00;62.00;;;;;;4985465;28;20061;-57
2023/08/31 07:19:56;;;;;;;4.57;1.40;;;17.00;62.00;;;;;;4980095;28;20113;-55
2023/08/31 07:22:23;;;;;;;2.90;1.50;;;17.00;61.80;;;;;;4984173;28;20070;-60
2023/08/31 07:24:51;;;;;;;2.30;1.42;;;17.10;61.80;;;;;;4984115;28;20058;-59
2023/08/31 07:27:19;;;;;;;4.30;1.38;;;17.10;61.80;;;;;;4983215;28;20054;-52
2023/08/31 07:29:47;;;;;;;5.93;1.65;;;17.10;61.70;;;;;;4984457;28;20058;-52
2023/08/31 07:32:14;;;;;;;4.22;1.67;;;17.20;61.60;;;;;;4982501;28;20054;-52
2023/08/31 07:34:41;;;;;;;3.00;1.33;;;17.20;61.60;;;;;;4980751;28;20519;-55
2023/08/31 07:37:08;;;;;;;5.43;1.45;;;17.20;61.60;;;;;;4983438;28;20509;-56
2023/08/31 07:39:36;;;;;;;4.10;1.60;;;17.30;61.60;;;;;;4983647;28;20057;-55
2023/08/31 07:42:03;;;;;;;6.13;1.60;;;17.30;61.40;;;;;;4977171;28;20080;-59
2023/08/31 07:44:32;;;;;;;4.30;1.77;;;17.40;61.40;;;;;;4980409;28;20050;-53
2023/08/31 07:46:59;;;;;;;3.92;1.77;;;17.40;61.40;;;;;;4983838;28;20084;-50
2023/08/31 07:49:26;;;;;;;6.80;1.58;;;17.40;61.30;;;;;;4982650;28;20085;-56
2023/08/31 07:51:54;;;;;;;3.40;1.48;;;17.40;61.10;;;;;;4983257;28;20058;-51
2023/08/31 07:54:21;;;;;;;2.95;1.35;;;17.50;61.00;;;;;;4983411;28;20057;-57
2023/08/31 07:56:49;;;;;;;3.80;1.40;;;17.50;61.40;;;;;;4982692;28;20054;-58
2023/08/31 07:59:18;;;;;;;6.47;2.10;;;17.50;60.60;;;;;;4982169;28;20491;-51
2023/08/31 08:01:47;;;;;;;3.25;1.45;;;17.50;60.50;;;;;;4983287;28;20075;-53
2023/08/31 08:04:14;;;;;;;4.82;1.85;;;17.60;60.50;;;;;;4983328;28;20058;-56
2023/08/31 08:06:42;;;;;;;2.33;1.30;;;17.60;60.60;;;;;;4981516;28;20057;-52
2023/08/31 08:09:09;;;;;;;5.72;1.55;;;17.60;60.70;;;;;;4982763;28;20506;-47
2023/08/31 08:11:36;;;;;;;4.82;1.63;;;17.60;60.50;;;;;;4982429;28;20499;-65
2023/08/31 08:14:04;;;;;;;2.00;1.48;;;17.70;60.30;;;;;;4983437;28;20498;-56
2023/08/31 08:16:31;;;;;;;7.85;1.80;;;17.70;59.80;;;;;;4979059;28;20058;-56
2023/08/31 08:19:00;;;;;;;2.92;1.40;;;17.70;59.70;;;;;;4984394;28;20050;-55
2023/08/31 08:21:27;;;;;;;4.15;1.58;;;17.80;59.90;;;;;;4982007;28;20055;-53
2023/08/31 08:23:54;;;;;;;4.40;1.45;;;17.80;59.90;;;;;;4981784;28;20081;-51
2023/08/31 08:26:21;;;;;;;6.07;1.50;;;17.90;60.00;;;;;;4980498;28;20047;-55
2023/08/31 08:28:49;;;;;;;4.68;1.70;;;17.90;59.90;;;;;;4978428;28;20050;-55
2023/08/31 08:31:16;;;;;;;8.02;1.40;;;18.00;59.90;;;;;;4981514;28;20405;-50
2023/08/31 08:33:44;;;;;;;6.00;1.25;;;18.00;59.70;;;;;;4983733;28;20065;-50
2023/08/31 08:36:13;;;;;;;7.60;2.10;;;18.00;59.80;;;;;;4979675;28;20062;-52
2023/08/31 08:38:40;;;;;;;3.67;1.40;;;18.00;59.80;;;;;;4983275;28;20051;-50
2023/08/31 08:41:07;;;;;;;3.42;1.23;;;18.10;59.90;;;;;;4981249;28;20050;-52
2023/08/31 08:43:36;;;;;;;3.53;1.40;;;18.20;60.00;;;;;;4982503;28;20410;-52
2023/08/31 08:46:07;;;;;;;3.67;1.48;;;18.20;60.00;;;;;;4977543;28;20058;-58
2023/08/31 08:48:36;;;;;;;4.22;1.48;;;18.30;59.80;;;;;;4981234;28;20053;-50
2023/08/31 08:51:05;;;;;;;2.75;1.50;;;18.40;59.90;;;;;;4979306;28;20054;-55
2023/08/31 08:53:34;;;;;;;5.63;1.50;;;18.40;59.70;;;;;;4977263;28;20060;-48
2023/08/31 08:56:01;;;;;;;3.97;1.70;;;18.50;59.40;;;;;;4979172;28;20061;-54
2023/08/31 08:58:29;;;;;;;6.43;1.67;;;18.60;59.40;;;;;;4979313;28;20418;-59
2023/08/31 09:00:57;;;;;;;3.00;1.08;;;18.60;59.00;;;;;;4978711;28;20050;-57
2023/08/31 09:03:25;;;;;;;3.97;1.30;;;18.60;57.50;;;;;;4978996;28;20089;-60
2023/08/31 09:05:52;;;;;;;3.85;1.45;;;18.60;57.30;;;;;;4974776;28;20054;-61
2023/08/31 09:08:27;;;;;;;5.07;1.58;;;18.60;56.20;;;;;;4979345;28;20053;-57
2023/08/31 09:10:58;;;;;;;3.20;0.98;;;18.70;56.70;;;;;;4977253;28;20060;-50
2023/08/31 09:13:28;;;;;;;3.67;1.10;;;18.70;57.20;;;;;;4978913;28;20640;-51
2023/08/31 09:15:56;;;;;;;3.35;1.23;;;18.80;57.00;;;;;;4975048;28;20069;-46
2023/08/31 09:18:25;;;;;;;2.03;1.00;;;18.90;57.00;;;;;;4975086;28;20058;-54
2023/08/31 09:20:53;;;;;;;4.78;1.25;;;18.90;56.50;;;;;;4977916;28;20694;-51
2023/08/31 09:23:21;;;;;;;2.65;1.05;;;18.90;56.30;;;;;;4977318;28;20053;-58
2023/08/31 09:25:50;;;;;;;3.50;1.30;;;19.00;56.30;;;;;;4978828;28;20081;-53
2023/08/31 09:28:21;;;;;;;3.55;1.25;;;19.00;55.90;;;;;;4979456;28;20053;-49
2023/08/31 09:30:49;;;;;;;2.42;1.17;;;19.10;55.80;;;;;;4975824;28;20057;-57
2023/08/31 09:33:20;;;;;;;2.90;1.27;;;19.10;55.70;;;;;;4976524;28;20054;-49
2023/08/31 09:35:50;;;;;;;3.03;1.00;;;19.10;55.80;;;;;;4972201;28;20426;-50
2023/08/31 09:38:17;;;;;;;3.20;1.30;;;19.20;55.70;;;;;;4979535;28;20065;-54
2023/08/31 09:40:45;;;;;;;3.83;1.30;;;19.20;55.30;;;;;;4976628;28;20718;-58
2023/08/31 09:43:12;;;;;;;2.75;1.20;;;19.20;54.40;;;;;;4981601;28;20054;-57
2023/08/31 09:45:41;;;;;;;3.65;1.38;;;19.30;54.10;;;;;;4973451;28;20062;-52
2023/08/31 09:48:09;;;;;;;4.70;1.27;;;19.30;54.40;;;;;;4974179;28;20061;-49
2023/08/31 09:50:38;;;;;;;2.75;1.27;;;19.40;54.80;;;;;;4978329;28;20073;-51
2023/08/31 09:53:08;;;;;;;2.30;1.27;;;19.50;55.20;;;;;;4977765;28;20057;-52
2023/08/31 09:55:36;;;;;;;2.45;1.08;;;19.50;55.20;;;;;;4978927;28;20050;-55
2023/08/31 09:58:07;;;;;;;5.13;1.10;;;19.60;55.00;;;;;;4976198;28;20065;-53
2023/08/31 10:00:37;;;;;;;3.08;1.13;;;19.60;55.00;;;;;;4975881;28;20050;-56
2023/08/31 10:03:06;;;;;;;2.45;1.10;;;19.70;54.60;;;;;;4976178;28;20054;-55
2023/08/31 10:05:34;;;;;;;3.78;1.30;;;19.80;53.90;;;;;;4971195;28;20054;-58
2023/08/31 10:08:02;;;;;;;5.80;1.15;;;19.80;53.50;;;;;;4978635;28;20054;-54
2023/08/31 10:10:30;;;;;;;2.38;0.80;;;19.90;53.40;;;;;;4979361;28;20510;-55
2023/08/31 10:13:00;;;;;;;4.22;1.10;;;19.90;53.80;;;;;;4980242;28;20054;-52
2023/08/31 10:15:33;;;;;;;3.13;1.20;;;20.00;53.90;;;;;;4975843;28;20058;-52
2023/08/31 10:18:02;;;;;;;2.58;0.90;;;20.00;54.10;;;;;;4978367;28;20062;-52
2023/08/31 10:20:33;;;;;;;2.40;1.15;;;20.00;54.00;;;;;;4976810;28;20050;-60
2023/08/31 10:23:03;;;;;;;4.15;1.40;;;20.10;53.70;;;;;;4975873;28;20050;-64
2023/08/31 10:26:01;;;;;;;2.42;1.00;;;20.10;52.50;;;;;;4970869;28;20050;-56
2023/08/31 10:28:29;;;;;;;3.63;1.13;;;20.10;52.90;;;;;;4976319;28;20058;-52
2023/08/31 10:31:02;;;;;;;2.60;1.00;;;20.20;53.20;;;;;;4979932;28;20062;-49
2023/08/31 10:33:32;;;;;;;1.65;0.75;;;20.20;53.30;;;;;;4978576;28;20050;-51
2023/08/31 10:36:01;;;;;;;2.42;1.27;;;20.30;53.30;;;;;;4973909;28;20058;-55
2023/08/31 10:38:31;;;;;;;2.88;1.00;;;20.30;53.10;;;;;;4977636;28;20065;-58
2023/08/31 10:41:03;;;;;;;4.00;1.10;;;20.30;53.10;;;;;;4978381;28;20058;-52
2023/08/31 10:43:45;;;;;;;2.85;1.10;;;20.40;53.00;;;;;;4979836;28;20410;-58
2023/08/31 10:46:20;;;;;;;2.05;0.80;;;20.40;52.30;;;;;;4978540;28;20502;-51
2023/08/31 10:48:51;;;;;;;5.30;1.23;;;20.50;52.90;;;;;;4978411;28;20410;-51
2023/08/31 10:51:22;;;;;;;3.28;1.13;;;20.50;52.30;;;;;;4980289;28;20052;-56
2023/08/31 10:53:49;;;;;;;4.90;1.13;;;20.60;52.30;;;;;;4981376;28;20046;-59
2023/08/31 10:56:17;;;;;;;1.95;1.20;;;20.60;52.20;;;;;;4977675;28;20521;-57
2023/08/31 10:58:59;;;;;;;3.03;1.38;;;20.70;52.00;;;;;;4984144;28;20065;-52
2023/08/31 11:01:53;;;;;;;3.75;0.98;;;20.70;52.00;;;;;;4974952;28;20054;-56
2023/08/31 11:04:21;;;;;;;3.25;0.98;;;20.80;51.80;;;;;;4972262;28;20046;-52
2023/08/31 11:06:50;;;;;;;3.63;1.10;;;20.80;52.00;;;;;;4974191;28;20061;-49
2023/08/31 11:09:22;;;;;;;4.13;1.38;;;20.90;51.70;;;;;;4976728;28;20054;-53
2023/08/31 11:11:49;;;;;;;3.25;1.13;;;20.90;51.50;;;;;;4978187;28;20070;-53
2023/08/31 11:14:16;;;;;;;2.50;1.20;;;20.90;51.50;;;;;;4976949;28;20054;-49
2023/08/31 11:16:45;;;;;;;2.75;1.15;;;21.00;51.60;;;;;;4976701;28;20054;-47
2023/08/31 11:19:12;;;;;;;2.38;1.15;;;21.00;51.40;;;;;;4975602;28;20507;-55
2023/08/31 11:21:40;;;;;;;5.25;1.38;;;21.10;51.70;;;;;;4977632;28;20490;-55
2023/08/31 11:24:10;;;;;;;2.53;1.30;;;21.10;50.80;;;;;;4977099;28;20058;-49
2023/08/31 11:26:38;;;;;;;4.22;1.05;;;21.10;49.80;;;;;;4976784;28;20402;-49
2023/08/31 11:29:08;;;;;;;3.50;1.27;;;21.10;50.40;;;;;;4979539;28;20061;-52
2023/08/31 11:31:40;;;;;;;2.55;0.93;;;21.10;50.10;;;;;;4976056;28;20058;-57
2023/08/31 11:34:12;;;;;;;4.85;1.55;;;21.10;49.70;;;;;;4974927;28;20055;-58
2023/08/31 11:36:40;;;;;;;4.32;1.77;;;21.10;49.00;;;;;;4974415;28;20494;-58
2023/08/31 11:39:10;;;;;;;7.53;1.60;;;21.00;48.80;;;;;;4975751;28;20055;-50
2023/08/31 11:41:41;;;;;;;4.05;1.33;;;21.00;48.90;;;;;;4979251;28;20046;-58
2023/08/31 11:44:09;;;;;;;5.93;1.67;;;20.90;49.20;;;;;;4976364;28;20055;-62
2023/08/31 11:46:37;;;;;;;5.78;1.50;;;20.90;48.20;;;;;;4976147;28;20050;-61
2023/08/31 11:49:05;;;;;;;3.95;1.40;;;20.90;48.70;;;;;;4977576;28;20054;-57
2023/08/31 11:51:33;;;;;;;2.50;1.13;;;20.80;49.00;;;;;;4978258;28;20061;-59
2023/08/31 11:54:02;;;;;;;3.00;1.20;;;20.80;49.60;;;;;;4973783;28;20054;-60
2023/08/31 11:56:42;;;;;;;3.03;1.23;;;20.80;50.00;;;;;;4979639;28;20487;-58
2023/08/31 11:59:11;;;;;;;3.25;1.05;;;20.80;50.30;;;;;;4980064;28;20507;-59
2023/08/31 12:01:40;;;;;;;3.25;1.23;;;20.90;50.60;;;;;;4974233;28;20368;-61
2023/08/31 12:04:12;;;;;;;5.07;1.30;;;20.90;50.00;;;;;;4974880;28;20062;-66
2023/08/31 12:06:40;;;;;;;3.83;1.48;;;20.90;49.60;;;;;;4971287;28;20061;-62
2023/08/31 12:09:08;;;;;;;4.35;1.20;;;20.90;49.70;;;;;;4973750;28;20059;-62
2023/08/31 12:11:36;;;;;;;4.60;1.17;;;21.00;50.00;;;;;;4972337;28;20501;-61
2023/08/31 12:14:18;;;;;;;5.05;1.70;;;21.00;50.40;;;;;;4978747;28;20046;-61
2023/08/31 12:16:46;;;;;;;11.25;3.10;;;21.10;50.00;;;;;;4974433;28;20065;-62
2023/08/31 12:19:13;;;;;;;6.95;2.53;;;21.10;49.70;;;;;;4977617;28;20058;-61
2023/08/31 12:21:40;;;;;;;5.07;2.08;;;21.10;49.80;;;;;;4973227;28;20061;-61
2023/08/31 12:24:08;;;;;;;11.38;3.10;;;21.10;50.10;;;;;;4976222;28;20768;-66
2023/08/31 12:26:36;;;;;;;8.23;2.13;;;21.10;48.80;;;;;;4975425;28;20729;-62
2023/08/31 12:29:05;;;;;;;6.53;1.92;;;21.10;48.10;;;;;;4976086;28;20058;-59
2023/08/31 12:31:33;;;;;;;5.88;1.80;;;21.00;49.30;;;;;;4974047;28;20055;-62
2023/08/31 12:34:04;;;;;;;7.10;2.00;;;20.80;49.50;;;;;;4976672;28;20065;-59
2023/08/31 12:36:31;;;;;;;6.35;2.03;;;20.70;50.40;;;;;;4976256;28;20054;-65
2023/08/31 12:39:01;;;;;;;7.78;1.80;;;20.50;51.20;;;;;;4978630;28;20061;-62
2023/08/31 12:41:29;;;;;;;5.90;2.00;;;20.40;51.80;;;;;;4972725;28;20055;-61
2023/08/31 12:43:57;;;;;;;3.78;1.92;;;20.20;51.70;;;;;;4976419;28;20417;-61
2023/08/31 12:46:26;;;;;;;4.40;1.45;;;20.10;51.60;;;;;;4971534;28;20054;-59
2023/08/31 12:48:53;;;;;;;4.38;1.75;;;19.90;51.80;;;;;;4973053;28;20486;-59
2023/08/31 12:51:21;;;;;;;3.33;1.50;;;19.80;51.80;;;;;;4974955;28;20414;-62
2023/08/31 12:53:48;;;;;;;4.72;1.40;;;19.60;52.20;;;;;;4977112;28;20081;-58
2023/08/31 12:56:21;;;;;;;2.42;1.30;;;19.50;52.40;;;;;;4976109;28;20061;-59